createdAt,value
2022-10-12T00:01:33.742Z,4.82
2022-10-12T00:04:00.170Z,4.81
2022-10-12T00:06:26.628Z,4.83
2022-10-12T00:08:54.814Z,4.89
2022-10-12T00:11:26.654Z,4.82
2022-10-12T00:13:53.741Z,4.88
2022-10-12T00:16:21.709Z,4.85
2022-10-12T00:18:52.443Z,4.82
2022-10-12T00:21:19.024Z,4.74
2022-10-12T00:23:45.997Z,4.65
2022-10-12T00:26:18.370Z,4.65
2022-10-12T00:28:45.076Z,4.67
2022-10-12T00:31:14.773Z,4.64
2022-10-12T00:33:41.984Z,4.60
2022-10-12T00:36:17.089Z,4.58
2022-10-12T00:38:43.607Z,4.63
2022-10-12T00:41:10.684Z,4.70
2022-10-12T00:43:41.640Z,4.81
2022-10-12T00:46:37.416Z,4.69
2022-10-12T00:49:12.829Z,4.72
2022-10-12T00:51:44.316Z,4.73
2022-10-12T00:54:14.504Z,4.65
2022-10-12T00:56:43.341Z,4.65
2022-10-12T00:59:12.788Z,4.62
2022-10-12T01:01:39.463Z,4.62
2022-10-12T01:04:06.391Z,4.60
2022-10-12T01:06:33.635Z,4.54
2022-10-12T01:09:00.282Z,4.43
2022-10-12T01:11:26.715Z,4.38
2022-10-12T01:13:53.132Z,4.35
2022-10-12T01:16:33.953Z,4.32
2022-10-12T01:19:45.195Z,4.26
2022-10-12T01:22:15.919Z,4.23
2022-10-12T01:24:52.901Z,4.29
2022-10-12T01:27:52.262Z,4.29
2022-10-12T01:30:23.124Z,4.26
2022-10-12T01:32:55.096Z,4.30
2022-10-12T01:35:25.631Z,4.35
2022-10-12T01:38:12.814Z,4.25
2022-10-12T01:40:44.357Z,4.23
2022-10-12T01:43:10.867Z,4.26
2022-10-12T01:45:37.367Z,4.19
2022-10-12T01:48:04.915Z,4.17
2022-10-12T01:50:38.020Z,4.12
2022-10-12T01:53:27.557Z,4.10
2022-10-12T01:56:21.119Z,4.07
2022-10-12T01:59:17.631Z,4.01
2022-10-12T02:01:52.854Z,3.97
2022-10-12T02:04:28.126Z,3.95
2022-10-12T02:07:01.192Z,3.96
2022-10-12T02:09:29.917Z,4.00
2022-10-12T02:11:58.481Z,3.92
2022-10-12T02:14:31.500Z,3.89
2022-10-12T02:17:04.652Z,3.90
2022-10-12T02:19:36.033Z,3.86
2022-10-12T02:22:05.192Z,3.95
2022-10-12T02:24:33.519Z,3.89
2022-10-12T02:27:00.899Z,3.87
2022-10-12T02:29:34.302Z,3.84
2022-10-12T02:32:24.155Z,3.85
2022-10-12T02:34:56.861Z,3.85
2022-10-12T02:37:25.964Z,3.76
2022-10-12T02:39:59.979Z,3.74
2022-10-12T02:42:41.855Z,3.72
2022-10-12T02:45:19.330Z,3.73
2022-10-12T02:47:47.161Z,3.76
2022-10-12T02:50:15.525Z,3.79
2022-10-12T02:52:42.248Z,3.76
2022-10-12T02:55:08.807Z,3.75
2022-10-12T02:57:35.396Z,3.68
2022-10-12T03:00:01.973Z,3.67
2022-10-12T03:02:28.711Z,3.68
2022-10-12T03:04:55.125Z,3.65
2022-10-12T03:07:21.526Z,3.66
2022-10-12T03:09:48.115Z,3.65
2022-10-12T03:12:14.622Z,3.58
2022-10-12T03:14:41.118Z,3.57
2022-10-12T03:17:07.901Z,3.67
2022-10-12T03:19:34.327Z,3.68
2022-10-12T03:22:00.890Z,3.71
2022-10-12T03:24:28.205Z,3.77
2022-10-12T03:26:54.633Z,3.79
2022-10-12T03:29:21.082Z,3.70
2022-10-12T03:31:47.532Z,3.70
2022-10-12T03:34:13.941Z,3.70
2022-10-12T03:36:40.400Z,3.77
2022-10-12T03:39:07.008Z,3.71
2022-10-12T03:41:33.444Z,3.64
2022-10-12T03:44:00.036Z,3.70
2022-10-12T03:46:26.569Z,3.68
2022-10-12T03:48:52.993Z,3.69
2022-10-12T03:51:19.447Z,3.61
2022-10-12T03:53:46.119Z,3.68
2022-10-12T03:56:12.887Z,3.62
2022-10-12T03:58:39.320Z,3.62
2022-10-12T04:01:05.851Z,3.67
2022-10-12T04:03:33.634Z,3.63
2022-10-12T04:06:00.041Z,3.60
2022-10-12T04:08:29.108Z,3.55
2022-10-12T04:10:56.072Z,3.48
2022-10-12T04:13:22.647Z,3.52
2022-10-12T04:15:49.316Z,3.59
2022-10-12T04:18:16.018Z,3.59
2022-10-12T04:20:42.452Z,3.62
2022-10-12T04:23:09.067Z,3.55
2022-10-12T04:25:35.542Z,3.63
2022-10-12T04:28:01.985Z,3.65
2022-10-12T04:30:29.107Z,3.57
2022-10-12T04:32:55.767Z,3.63
2022-10-12T04:35:22.208Z,3.65
2022-10-12T04:37:48.709Z,3.64
2022-10-12T04:40:15.121Z,3.70
2022-10-12T04:42:41.570Z,3.69
2022-10-12T04:45:08.572Z,3.63
2022-10-12T04:47:35.791Z,3.70
2022-10-12T04:50:03.007Z,3.70
2022-10-12T04:52:29.416Z,3.75
2022-10-12T04:54:55.837Z,3.70
2022-10-12T04:57:22.360Z,3.81
2022-10-12T04:59:48.934Z,3.78
2022-10-12T05:02:15.824Z,3.77
2022-10-12T05:04:42.421Z,3.69
2022-10-12T05:07:09.079Z,3.75
2022-10-12T05:09:35.566Z,3.71
2022-10-12T05:12:02.406Z,3.68
2022-10-12T05:14:35.014Z,3.63
2022-10-12T05:17:03.276Z,3.61
2022-10-12T05:19:29.863Z,3.57
2022-10-12T05:21:56.496Z,3.57
2022-10-12T05:24:23.093Z,3.58
2022-10-12T05:26:49.785Z,3.67
2022-10-12T05:29:16.869Z,3.71
2022-10-12T05:31:43.331Z,3.79
2022-10-12T05:34:10.024Z,3.81
2022-10-12T05:36:36.668Z,3.84
2022-10-12T05:39:05.907Z,3.77
2022-10-12T05:41:32.490Z,3.74
2022-10-12T05:43:58.907Z,3.85
2022-10-12T05:46:25.650Z,3.92
2022-10-12T05:48:52.135Z,3.99
2022-10-12T05:51:18.757Z,4.11
2022-10-12T05:53:45.257Z,4.20
2022-10-12T05:56:11.814Z,4.29
2022-10-12T05:58:38.362Z,4.30
2022-10-12T06:01:12.390Z,4.35
2022-10-12T06:03:38.958Z,4.37
2022-10-12T06:06:06.897Z,4.42
2022-10-12T06:08:34.092Z,4.45
2022-10-12T06:11:00.513Z,4.52
2022-10-12T06:13:26.936Z,4.53
2022-10-12T06:15:53.377Z,4.60
2022-10-12T06:18:20.279Z,4.75
2022-10-12T06:21:14.868Z,4.85
2022-10-12T06:23:40.541Z,4.71
2022-10-12T06:26:07.102Z,4.80
2022-10-12T06:28:33.686Z,4.74
2022-10-12T06:31:01.623Z,4.86
2022-10-12T06:33:28.748Z,4.86
2022-10-12T06:35:55.750Z,4.86
2022-10-12T06:38:22.597Z,4.93
2022-10-12T06:40:49.294Z,4.93
2022-10-12T06:43:15.917Z,4.98
2022-10-12T06:45:42.406Z,5.10
2022-10-12T06:48:09.297Z,5.16
2022-10-12T06:50:36.016Z,5.33
2022-10-12T06:53:04.695Z,5.42
2022-10-12T06:55:31.510Z,5.58
2022-10-12T06:57:57.967Z,5.59
2022-10-12T07:00:24.994Z,5.75
2022-10-12T07:02:52.206Z,5.85
2022-10-12T07:05:19.307Z,5.88
2022-10-12T07:07:45.781Z,6.06
2022-10-12T07:10:12.536Z,6.06
2022-10-12T07:12:39.412Z,6.21
2022-10-12T07:15:07.328Z,6.45
2022-10-12T07:17:33.911Z,6.60
2022-10-12T07:20:00.360Z,6.77
2022-10-12T07:22:27.239Z,6.92
2022-10-12T07:37:44.366Z,20.20
2022-10-12T07:40:10.943Z,23.08
2022-10-12T07:42:48.899Z,24.70
2022-10-12T07:45:30.252Z,24.58
2022-10-12T07:47:56.748Z,25.01
2022-10-12T07:50:23.410Z,25.47
2022-10-12T07:52:56.236Z,26.21
2022-10-12T07:55:22.746Z,26.14
2022-10-12T07:57:49.159Z,26.89
2022-10-12T08:00:22.181Z,26.76
2022-10-12T08:02:48.767Z,26.66
2022-10-12T08:05:15.246Z,25.79
2022-10-12T08:07:48.252Z,26.14
2022-10-12T08:10:14.754Z,25.47
2022-10-12T08:12:41.343Z,24.87
2022-10-12T08:15:15.256Z,26.63
2022-10-12T08:17:41.840Z,26.02
2022-10-12T08:20:08.630Z,27.24
2022-10-12T08:22:41.155Z,27.06
2022-10-12T08:25:07.960Z,26.24
2022-10-12T08:27:36.112Z,26.98
2022-10-12T08:30:09.166Z,24.87
2022-10-12T08:32:35.656Z,25.11
2022-10-12T08:35:02.213Z,26.38
2022-10-12T08:37:42.295Z,28.03
2022-10-12T08:40:14.314Z,28.15
2022-10-12T08:42:55.177Z,26.26
2022-10-12T08:45:36.374Z,24.88
2022-10-12T08:48:25.173Z,20.32
2022-10-12T08:51:03.886Z,18.49
2022-10-12T08:53:54.179Z,17.68
2022-10-12T08:56:20.865Z,16.87
2022-10-12T08:58:48.418Z,15.80
2022-10-12T09:01:30.224Z,15.99
2022-10-12T09:04:13.353Z,15.46
2022-10-12T09:06:53.198Z,15.01
2022-10-12T09:09:46.596Z,15.03
2022-10-12T09:12:30.289Z,14.83
2022-10-12T09:15:00.507Z,15.26
2022-10-12T09:17:37.304Z,15.77
2022-10-12T09:20:33.214Z,15.61
2022-10-12T09:23:35.371Z,15.10
2022-10-12T09:26:09.953Z,15.01
2022-10-12T09:28:51.352Z,15.18
2022-10-12T09:31:43.430Z,14.85
2022-10-12T09:34:19.333Z,14.54
2022-10-12T09:36:55.479Z,14.44
2022-10-12T09:39:35.545Z,14.53
2022-10-12T09:42:02.333Z,14.37
2022-10-12T09:44:35.871Z,14.46
2022-10-12T09:47:04.331Z,14.62
2022-10-12T09:49:41.124Z,14.38
2022-10-12T09:52:08.270Z,14.57
2022-10-12T09:54:35.557Z,14.40
2022-10-12T09:57:02.717Z,14.06
2022-10-12T09:59:42.621Z,13.91
2022-10-12T10:02:11.864Z,13.94
2022-10-12T10:04:39.470Z,13.79
2022-10-12T10:07:24.373Z,13.52
2022-10-12T10:10:10.197Z,13.64
2022-10-12T10:12:43.011Z,13.44
2022-10-12T10:15:25.018Z,13.73
2022-10-12T10:17:57.065Z,13.71
2022-10-12T10:20:28.260Z,13.71
2022-10-12T10:22:54.831Z,13.50
2022-10-12T10:25:22.832Z,13.70
2022-10-12T10:27:50.958Z,13.85
2022-10-12T10:30:29.596Z,13.74
2022-10-12T10:33:18.271Z,13.91
2022-10-12T10:36:22.418Z,13.78
2022-10-12T10:38:55.692Z,13.89
2022-10-12T10:41:26.361Z,14.07
2022-10-12T10:43:52.989Z,14.12
2022-10-12T10:46:27.246Z,13.82
2022-10-12T10:49:01.715Z,13.97
2022-10-12T10:51:51.368Z,13.83
2022-10-12T10:54:23.867Z,13.96
2022-10-12T10:56:52.567Z,14.12
2022-10-12T10:59:22.411Z,14.17
2022-10-12T11:01:55.573Z,14.09
2022-10-12T11:04:42.012Z,13.83
2022-10-12T11:07:21.019Z,13.88
2022-10-12T11:09:52.137Z,14.03
2022-10-12T11:12:31.155Z,13.99
2022-10-12T11:15:05.928Z,14.13
2022-10-12T11:17:35.402Z,13.85
2022-10-12T11:20:15.760Z,14.01
2022-10-12T11:23:23.837Z,14.24
2022-10-12T11:26:04.265Z,14.51
2022-10-12T11:28:32.685Z,14.87
2022-10-12T11:31:00.494Z,15.13
2022-10-12T11:33:42.534Z,15.32
2022-10-12T11:36:16.174Z,15.20
2022-10-12T11:38:47.510Z,15.01
2022-10-12T11:41:35.729Z,15.06
2022-10-12T11:44:16.061Z,14.88
2022-10-12T11:46:57.086Z,14.94
2022-10-12T11:49:29.234Z,15.34
2022-10-12T11:51:58.748Z,15.16
2022-10-12T11:54:32.724Z,14.93
2022-10-12T11:57:05.182Z,15.23
2022-10-12T11:59:48.545Z,15.50
2022-10-12T12:02:23.416Z,15.65
2022-10-12T12:04:51.145Z,15.73
2022-10-12T12:07:48.981Z,15.86
2022-10-12T12:10:38.037Z,15.18
2022-10-12T12:13:11.616Z,15.05
2022-10-12T12:15:43.143Z,14.77
2022-10-12T12:18:15.640Z,14.68
2022-10-12T12:20:42.623Z,14.72
2022-10-12T12:23:29.494Z,14.54
2022-10-12T12:26:16.870Z,14.52
2022-10-12T12:28:49.655Z,14.46
2022-10-12T12:31:22.423Z,14.49
2022-10-12T12:33:52.067Z,14.68
2022-10-12T12:36:33.159Z,15.19
2022-10-12T12:39:00.453Z,15.76
2022-10-12T12:42:00.601Z,15.83
2022-10-12T12:44:34.477Z,15.30
2022-10-12T12:47:01.136Z,14.89
2022-10-12T12:49:46.377Z,14.63
2022-10-12T12:52:28.495Z,14.53
2022-10-12T12:55:16.574Z,14.38
2022-10-12T12:57:54.657Z,14.29
2022-10-12T13:00:22.736Z,14.32
2022-10-12T13:03:34.180Z,14.46
2022-10-12T13:06:14.992Z,14.63
2022-10-12T13:09:15.424Z,14.85
2022-10-12T13:12:06.755Z,14.81
2022-10-12T13:15:01.087Z,14.97
2022-10-12T13:17:39.837Z,15.14
2022-10-12T13:20:20.980Z,15.37
2022-10-12T13:22:50.716Z,15.25
2022-10-12T13:25:59.558Z,15.55
2022-10-12T13:28:29.086Z,15.40
2022-10-12T13:31:02.909Z,15.76
2022-10-12T13:34:08.072Z,15.86
2022-10-12T13:36:36.914Z,15.79
2022-10-12T13:39:21.269Z,15.55
2022-10-12T13:41:50.690Z,15.16
2022-10-12T13:44:26.802Z,14.52
2022-10-12T13:46:56.689Z,14.45
2022-10-12T13:49:24.987Z,14.28
2022-10-12T13:51:54.395Z,14.22
2022-10-12T13:54:26.213Z,14.16
2022-10-12T13:57:00.692Z,14.13
2022-10-12T13:59:28.699Z,13.99
2022-10-12T14:02:01.902Z,14.04
2022-10-12T14:04:30.922Z,13.95
2022-10-12T14:07:04.352Z,13.73
2022-10-12T14:09:40.360Z,13.80
2022-10-12T14:12:07.527Z,13.77
2022-10-12T14:14:36.266Z,13.89
2022-10-12T14:17:03.289Z,13.79
2022-10-12T14:19:51.448Z,13.70
2022-10-12T14:22:32.495Z,13.61
2022-10-12T14:25:08.009Z,13.60
2022-10-12T14:27:36.237Z,13.54
2022-10-12T14:30:23.683Z,13.37
2022-10-12T14:32:53.967Z,13.39
2022-10-12T14:35:25.546Z,13.31
2022-10-12T14:37:55.099Z,13.26
2022-10-12T14:40:39.335Z,13.27
2022-10-12T14:43:13.325Z,13.25
2022-10-12T14:45:40.603Z,13.12
2022-10-12T14:48:18.495Z,13.08
2022-10-12T14:50:48.338Z,13.07
2022-10-12T14:53:15.746Z,13.04
2022-10-12T14:55:42.939Z,12.95
2022-10-12T14:58:15.301Z,12.93
2022-10-12T15:00:42.535Z,12.97
2022-10-12T15:03:09.319Z,12.97
2022-10-12T15:05:36.064Z,12.88
2022-10-12T15:08:09.299Z,12.83
2022-10-12T15:10:37.819Z,12.78
2022-10-12T15:13:04.604Z,12.82
2022-10-12T15:15:40.195Z,12.79
2022-10-12T15:18:07.797Z,12.81
2022-10-12T15:20:35.007Z,12.74
2022-10-12T15:23:03.090Z,12.65
2022-10-12T15:25:35.931Z,12.62
2022-10-12T15:28:03.359Z,12.57
2022-10-12T15:30:30.217Z,12.50
2022-10-12T15:32:56.958Z,12.42
2022-10-12T15:35:26.122Z,12.50
2022-10-12T15:37:53.230Z,12.40
2022-10-12T15:40:20.971Z,12.28
2022-10-12T15:42:47.805Z,12.33
2022-10-12T15:45:22.537Z,12.25
2022-10-12T15:47:50.541Z,12.18
2022-10-12T15:50:19.258Z,12.14
2022-10-12T15:52:46.397Z,12.02
2022-10-12T15:55:22.085Z,12.10
2022-10-12T15:57:49.054Z,12.07
2022-10-12T16:00:17.066Z,11.97
2022-10-12T16:02:43.561Z,11.90
2022-10-12T16:05:20.280Z,11.90
2022-10-12T16:07:47.126Z,11.88
2022-10-12T16:10:15.332Z,11.84
2022-10-12T16:12:43.499Z,11.80
2022-10-12T16:15:12.693Z,11.84
2022-10-12T16:17:39.495Z,11.80
2022-10-12T16:20:06.789Z,11.73
2022-10-12T16:22:33.312Z,11.79
2022-10-12T16:24:59.777Z,11.71
2022-10-12T16:27:26.312Z,11.60
2022-10-12T16:29:52.757Z,11.63
2022-10-12T16:32:19.265Z,11.61
2022-10-12T16:34:46.353Z,11.50
2022-10-12T16:37:12.974Z,11.49
2022-10-12T16:39:39.854Z,11.51
2022-10-12T16:42:06.352Z,11.45
2022-10-12T16:44:32.885Z,11.44
2022-10-12T16:47:01.810Z,11.40
2022-10-12T16:49:28.688Z,11.31
2022-10-12T16:51:55.274Z,11.32
2022-10-12T16:54:23.002Z,11.27
2022-10-12T16:56:49.515Z,11.31
2022-10-12T16:59:16.080Z,11.22
2022-10-12T17:01:42.857Z,11.19
2022-10-12T17:04:12.656Z,11.23
2022-10-12T17:06:39.461Z,11.12
2022-10-12T17:09:05.932Z,11.08
2022-10-12T17:11:36.321Z,11.10
2022-10-12T17:14:04.179Z,11.10
2022-10-12T17:16:48.963Z,11.17
2022-10-12T17:19:20.890Z,11.13
2022-10-12T17:21:48.154Z,11.13
2022-10-12T17:24:18.822Z,11.10
2022-10-12T17:26:46.514Z,11.08
2022-10-12T17:29:15.532Z,11.08
2022-10-12T17:31:42.270Z,11.04
2022-10-12T17:34:17.076Z,11.03
2022-10-12T17:36:43.658Z,11.07
2022-10-12T17:39:10.142Z,11.05
2022-10-12T17:41:37.408Z,11.01
2022-10-12T17:44:03.953Z,10.97
2022-10-12T17:46:30.429Z,10.92
2022-10-12T17:48:57.035Z,10.95
2022-10-12T17:51:23.593Z,10.98
2022-10-12T17:53:50.098Z,10.95
2022-10-12T17:56:17.116Z,10.92
2022-10-12T17:58:44.005Z,10.91
2022-10-12T18:01:13.300Z,10.91
2022-10-12T18:03:41.977Z,10.96
2022-10-12T18:06:14.336Z,10.97
2022-10-12T18:08:40.872Z,10.95
2022-10-12T18:11:08.052Z,10.97
2022-10-12T18:13:35.691Z,10.98
2022-10-12T18:16:02.374Z,10.99
2022-10-12T18:18:29.378Z,10.98
2022-10-12T18:20:55.990Z,10.99
2022-10-12T18:23:22.585Z,10.96
2022-10-12T18:25:50.811Z,10.96
2022-10-12T18:28:20.203Z,10.95
2022-10-12T18:45:57.141Z,11.25
2022-10-12T18:48:23.873Z,11.19
2022-10-12T18:50:51.050Z,11.14
2022-10-12T18:53:17.471Z,11.14
2022-10-12T18:55:44.006Z,11.12
2022-10-12T18:58:10.477Z,11.11
2022-10-12T19:00:37.232Z,11.14
2022-10-12T19:03:03.821Z,11.10
2022-10-12T19:05:31.052Z,11.07
2022-10-12T19:07:58.382Z,11.13
2022-10-12T19:10:24.835Z,11.05
2022-10-12T19:12:51.295Z,10.97
2022-10-12T19:15:18.154Z,10.90
2022-10-12T19:17:44.587Z,10.91
2022-10-12T19:20:11.265Z,10.89
2022-10-12T19:22:38.170Z,10.89
2022-10-12T19:25:04.952Z,10.82
2022-10-12T19:27:32.417Z,10.80
2022-10-12T19:29:58.968Z,10.76
2022-10-12T19:32:25.446Z,10.69
2022-10-12T19:34:52.217Z,10.72
2022-10-12T19:37:19.017Z,10.61
2022-10-12T19:39:47.030Z,10.62
2022-10-12T19:42:13.465Z,10.57
2022-10-12T19:44:40.159Z,10.56
2022-10-12T19:47:06.920Z,10.55
2022-10-12T19:49:36.947Z,10.52
2022-10-12T19:52:05.017Z,10.48
2022-10-12T19:54:36.097Z,10.49
2022-10-12T19:57:02.959Z,10.50
2022-10-12T19:59:29.633Z,10.48
2022-10-12T20:01:56.069Z,10.50
2022-10-12T20:04:22.520Z,10.50
2022-10-12T20:06:49.461Z,10.44
2022-10-12T20:09:15.985Z,10.41
2022-10-12T20:11:42.530Z,10.33
2022-10-12T20:14:10.287Z,10.30
2022-10-12T20:16:36.987Z,10.29
2022-10-12T20:19:04.988Z,10.25
2022-10-12T20:21:32.664Z,10.10
2022-10-12T20:23:59.176Z,10.12
2022-10-12T20:26:26.259Z,10.06
2022-10-12T20:28:54.013Z,10.00
2022-10-12T20:31:23.290Z,10.04
2022-10-12T20:33:53.142Z,9.94
2022-10-12T20:36:22.599Z,9.96
2022-10-12T20:38:49.380Z,9.93
2022-10-12T20:41:18.670Z,9.90
2022-10-12T20:43:45.289Z,9.90
2022-10-12T20:46:14.419Z,9.91
2022-10-12T20:48:41.637Z,9.89
2022-10-12T20:51:10.094Z,9.86
2022-10-12T20:53:37.748Z,9.84
2022-10-12T20:56:07.361Z,9.81
2022-10-12T20:58:34.149Z,9.75
2022-10-12T21:01:11.201Z,9.73
2022-10-12T21:03:38.250Z,9.69
2022-10-12T21:06:10.737Z,9.67
2022-10-12T21:08:37.229Z,9.63
2022-10-12T21:11:04.416Z,9.59
2022-10-12T21:13:32.733Z,9.49
2022-10-12T21:15:59.183Z,9.43
2022-10-12T21:18:26.184Z,9.37
2022-10-12T21:20:54.544Z,9.35
2022-10-12T21:23:21.287Z,9.28
2022-10-12T21:25:47.739Z,9.25
2022-10-12T21:28:14.248Z,9.19
2022-10-12T21:30:40.873Z,9.15
2022-10-12T21:33:07.421Z,9.11
2022-10-12T21:35:34.355Z,9.03
2022-10-12T21:38:00.777Z,9.01
2022-10-12T21:40:27.264Z,8.98
2022-10-12T21:42:53.717Z,8.88
2022-10-12T21:45:20.379Z,9.04
2022-10-12T21:47:48.021Z,8.99
2022-10-12T21:50:14.593Z,8.99
2022-10-12T21:52:41.188Z,9.01
2022-10-12T21:55:08.617Z,8.88
2022-10-12T21:57:37.242Z,8.92
2022-10-12T22:00:05.441Z,8.76
2022-10-12T22:02:32.658Z,8.64
2022-10-12T22:04:59.146Z,8.52
2022-10-12T22:07:25.636Z,8.49
2022-10-12T22:09:52.384Z,8.34
2022-10-12T22:12:19.171Z,8.28
2022-10-12T22:14:46.169Z,8.19
2022-10-12T22:17:12.916Z,8.09
2022-10-12T22:19:39.548Z,8.00
2022-10-12T22:22:06.096Z,7.96
2022-10-12T22:24:32.804Z,7.93
2022-10-12T22:26:59.441Z,7.82
2022-10-12T22:29:26.173Z,7.78
2022-10-12T22:31:52.753Z,7.74
2022-10-12T22:34:20.411Z,7.67
2022-10-12T22:36:46.886Z,7.54
2022-10-12T22:39:13.447Z,7.50
2022-10-12T22:41:39.944Z,7.47
2022-10-12T22:44:06.493Z,7.38
2022-10-12T22:46:33.054Z,7.32
2022-10-12T22:48:59.622Z,7.27
2022-10-12T22:51:32.505Z,7.28
2022-10-12T22:53:59.531Z,7.24
2022-10-12T22:56:26.464Z,7.23
2022-10-12T22:58:58.533Z,7.11
2022-10-12T23:01:25.554Z,7.03
2022-10-12T23:03:52.073Z,7.01
2022-10-12T23:06:18.984Z,6.96
2022-10-12T23:08:46.155Z,6.92
2022-10-12T23:11:15.945Z,6.90
2022-10-12T23:13:42.750Z,6.81
2022-10-12T23:16:15.399Z,6.78
2022-10-12T23:18:42.265Z,6.79
2022-10-12T23:21:14.495Z,6.76
2022-10-12T23:23:41.707Z,6.73
2022-10-12T23:26:19.406Z,6.70
2022-10-12T23:28:46.455Z,6.69
2022-10-12T23:31:15.058Z,6.68
2022-10-12T23:33:41.836Z,6.63
2022-10-12T23:36:11.077Z,6.62
2022-10-12T23:38:38.533Z,6.81
2022-10-12T23:41:05.816Z,6.96
2022-10-12T23:43:33.497Z,6.91
2022-10-12T23:46:00.309Z,6.85
2022-10-12T23:48:27.264Z,6.84
2022-10-12T23:50:53.761Z,6.81
2022-10-12T23:53:21.078Z,6.78
2022-10-12T23:55:48.017Z,6.73
2022-10-12T23:58:14.803Z,6.74
